Time;durP1;ratioP1;P1;durP2;ratioP2;P2;SDS_P1;SDS_P2;PMS_P1;PMS_P2;Temp;Humidity;BMP_temperature;BMP_pressure;BME280_temperature;BME280_humidity;BME280_pressure;Samples;Min_cycle;Max_cycle;Signal;HPM_P1;HPM_P2
2021/08/15 00:00:19;;;;;;;0.97;0.83;;;;;;;20.00;58.41;98953.44;5031136;28;42738;-85
2021/08/15 00:02:47;;;;;;;1.67;1.37;;;;;;;19.96;58.58;98954.75;5030817;28;42603;-84
2021/08/15 00:05:15;;;;;;;1.70;1.00;;;;;;;20.01;58.45;98964.06;5014779;28;39991;-86
2021/08/15 00:07:44;;;;;;;1.30;1.10;;;;;;;19.97;58.45;98969.88;5014600;28;40616;-86
2021/08/15 00:10:12;;;;;;;0.97;0.87;;;;;;;19.93;58.88;98961.25;5031021;28;42798;-84
2021/08/15 00:12:40;;;;;;;1.33;0.90;;;;;;;19.77;58.79;98946.84;5030479;28;42537;-84
2021/08/15 00:15:10;;;;;;;1.67;1.57;;;;;;;19.85;58.96;98954.97;5014197;28;41075;-85
2021/08/15 00:17:38;;;;;;;1.47;1.13;;;;;;;19.58;59.09;98924.44;5013969;28;41278;-84
2021/08/15 00:20:08;;;;;;;1.23;1.13;;;;;;;19.63;59.27;98938.28;5030954;28;42962;-84
2021/08/15 00:22:37;;;;;;;1.07;1.03;;;;;;;19.70;59.55;98971.59;5031245;28;43298;-84
2021/08/15 00:25:08;;;;;;;1.93;1.17;;;;;;;19.64;59.72;98955.25;5030869;28;39183;-85
2021/08/15 00:27:36;;;;;;;1.30;1.20;;;;;;;19.55;60.90;98943.53;5014251;28;40580;-85
2021/08/15 00:30:05;;;;;;;2.27;1.30;;;;;;;19.49;60.95;98929.88;5029457;28;43039;-84
2021/08/15 00:32:32;;;;;;;1.30;1.20;;;;;;;19.46;61.09;98931.00;5029907;28;41280;-85
2021/08/15 00:35:01;;;;;;;1.30;1.07;;;;;;;19.55;60.56;98951.59;5031251;28;40164;-84
2021/08/15 00:37:29;;;;;;;1.00;0.90;;;;;;;19.48;60.32;98942.44;5031175;28;41886;-85
2021/08/15 00:40:12;;;;;;;1.30;1.10;;;;;;;19.39;60.49;98935.28;5015867;28;42123;-85
2021/08/15 00:42:40;;;;;;;0.83;0.80;;;;;;;19.47;60.44;98954.19;5012985;28;42259;-83
2021/08/15 00:45:09;;;;;;;1.30;1.00;;;;;;;19.34;60.77;98934.88;5014323;28;39019;-85
2021/08/15 00:47:36;;;;;;;1.27;0.90;;;;;;;19.27;60.86;98936.47;5013958;28;40651;-85
2021/08/15 00:50:05;;;;;;;1.67;1.03;;;;;;;19.24;60.49;98934.94;5013369;28;42009;-86
2021/08/15 00:52:33;;;;;;;1.10;0.90;;;;;;;19.19;60.84;98942.56;5029988;28;43052;-86
2021/08/15 00:55:02;;;;;;;1.53;0.93;;;;;;;19.23;60.53;98949.34;5012737;28;39084;-85
2021/08/15 00:57:35;;;;;;;1.17;0.90;;;;;;;18.87;60.90;98900.06;5030128;28;41616;-84
2021/08/15 01:00:05;;;;;;;0.83;0.80;;;;;;;19.17;60.70;98954.44;5029370;28;41857;-85
2021/08/15 01:02:33;;;;;;;1.60;1.07;;;;;;;19.05;60.92;98931.47;5012811;28;41137;-84
2021/08/15 01:05:02;;;;;;;1.80;1.30;;;;;;;19.05;61.05;98939.53;5029693;28;40145;-84
2021/08/15 01:07:30;;;;;;;1.17;1.03;;;;;;;19.05;61.14;98951.09;5013813;28;41629;-85
2021/08/15 01:09:58;;;;;;;1.40;1.10;;;;;;;18.97;61.18;98943.81;5030231;28;41763;-85
2021/08/15 01:12:27;;;;;;;1.07;1.00;;;;;;;18.86;61.83;98933.25;5013616;28;41213;-85
2021/08/15 01:14:58;;;;;;;2.03;1.37;;;;;;;18.86;61.81;98938.63;4997786;28;39148;-85
2021/08/15 01:17:26;;;;;;;0.93;0.83;;;;;;;18.83;61.67;98944.25;5013358;28;41037;-84
2021/08/15 01:20:00;;;;;;;1.57;0.90;;;;;;;18.75;61.63;98944.16;5013560;28;41867;-85
2021/08/15 01:22:28;;;;;;;1.37;1.27;;;;;;;18.65;61.64;98940.66;5029545;28;43210;-85
2021/08/15 01:24:58;;;;;;;1.30;1.20;;;;;;;18.64;62.25;98947.00;5031570;28;40062;-84
2021/08/15 01:27:27;;;;;;;1.80;1.20;;;;;;;18.57;62.68;98932.44;5012471;28;41301;-84
2021/08/15 01:29:56;;;;;;;1.17;1.00;;;;;;;18.57;62.28;98937.78;5030351;28;42804;-85
2021/08/15 01:32:24;;;;;;;1.83;0.93;;;;;;;18.55;62.40;98940.63;5029369;28;43242;-85
2021/08/15 01:34:51;;;;;;;1.33;0.87;;;;;;;18.56;62.43;98953.03;5013939;28;38865;-86
2021/08/15 01:37:22;;;;;;;0.77;0.77;;;;;;;18.46;62.54;98940.66;5029464;28;42075;-85
2021/08/15 01:39:52;;;;;;;1.60;1.50;;;;;;;18.47;62.64;98947.69;5013837;28;43067;-85
2021/08/15 01:42:19;;;;;;;1.03;0.93;;;;;;;18.44;62.55;98942.63;5027650;28;43108;-84
2021/08/15 01:44:47;;;;;;;1.23;0.80;;;;;;;18.49;62.59;98960.00;5029528;28;39893;-85
2021/08/15 01:47:16;;;;;;;1.00;1.00;;;;;;;18.47;62.74;98959.28;5012794;28;40605;-85
2021/08/15 01:49:44;;;;;;;1.33;1.20;;;;;;;18.36;62.57;98945.19;5029902;28;43288;-85
2021/08/15 01:52:11;;;;;;;2.00;1.03;;;;;;;18.43;62.46;98957.00;5029474;28;42408;-86
2021/08/15 01:54:39;;;;;;;1.23;1.13;;;;;;;18.31;62.64;98943.75;5029434;28;41245;-85
2021/08/15 01:57:07;;;;;;;0.70;0.70;;;;;;;18.29;62.64;98945.75;4996115;28;40877;-84
2021/08/15 01:59:34;;;;;;;1.40;1.23;;;;;;;18.03;62.72;98912.47;5013144;28;41771;-85
2021/08/15 02:02:02;;;;;;;1.37;1.10;;;;;;;18.24;62.78;98939.97;5028374;28;41779;-85
2021/08/15 02:04:31;;;;;;;0.70;0.70;;;;;;;18.28;62.68;98960.16;5012794;28;38994;-85
2021/08/15 02:06:58;;;;;;;1.17;0.90;;;;;;;18.16;63.02;98941.69;4996728;28;41645;-85
2021/08/15 02:09:26;;;;;;;1.40;1.30;;;;;;;18.13;62.69;98942.81;5012658;28;42042;-85
2021/08/15 02:11:54;;;;;;;1.03;0.83;;;;;;;18.20;62.69;98951.97;5012812;28;42461;-85
2021/08/15 02:14:21;;;;;;;1.67;1.47;;;;;;;18.10;62.68;98944.91;5029523;28;39997;-85
2021/08/15 02:16:49;;;;;;;1.10;0.90;;;;;;;18.16;63.06;98955.94;5012288;28;40767;-84
2021/08/15 02:19:17;;;;;;;1.00;1.00;;;;;;;18.12;63.38;98949.16;5028836;28;41796;-85
2021/08/15 02:21:47;;;;;;;1.17;1.00;;;;;;;18.05;63.12;98936.47;5029699;28;41201;-84
2021/08/15 02:24:14;;;;;;;0.77;0.70;;;;;;;18.04;63.29;98924.91;5011790;28;38853;-85
2021/08/15 02:26:42;;;;;;;1.07;0.90;;;;;;;18.02;63.25;98926.00;5028753;28;41809;-84
2021/08/15 02:29:10;;;;;;;0.60;0.60;;;;;;;17.99;63.47;98921.78;5012879;28;42579;-84
2021/08/15 02:31:37;;;;;;;1.57;1.17;;;;;;;17.90;63.92;98910.09;5011688;28;41841;-85
2021/08/15 02:34:05;;;;;;;2.03;0.73;;;;;;;18.06;63.55;98936.28;5012714;28;38853;-84
2021/08/15 02:36:32;;;;;;;0.80;0.80;;;;;;;17.96;63.72;98922.06;5028871;28;41245;-84
2021/08/15 02:39:02;;;;;;;1.13;0.90;;;;;;;18.04;63.61;98935.63;5012316;28;42393;-85
2021/08/15 02:41:32;;;;;;;0.87;0.87;;;;;;;17.95;63.86;98921.19;5011363;28;41161;-84
2021/08/15 02:43:59;;;;;;;1.10;1.00;;;;;;;17.86;63.96;98903.31;5012127;28;39843;-84
2021/08/15 02:46:27;;;;;;;1.10;1.00;;;;;;;17.81;63.76;98902.00;5012154;28;41605;-84
2021/08/15 02:48:55;;;;;;;1.27;1.17;;;;;;;17.88;63.83;98920.09;5011963;28;41758;-85
2021/08/15 02:51:23;;;;;;;1.47;1.13;;;;;;;17.88;64.19;98924.59;5011976;28;42151;-84
2021/08/15 02:53:51;;;;;;;1.17;1.07;;;;;;;17.82;64.25;98912.59;5028730;28;41032;-85
2021/08/15 02:56:23;;;;;;;1.47;1.03;;;;;;;17.84;64.29;98917.81;5011494;28;40720;-84
2021/08/15 02:58:51;;;;;;;1.23;0.87;;;;;;;17.85;64.21;98922.19;5008656;28;42014;-84
2021/08/15 03:01:18;;;;;;;0.90;0.90;;;;;;;17.68;64.18;98896.13;5011252;28;41536;-85
2021/08/15 03:03:46;;;;;;;0.80;0.80;;;;;;;17.42;63.84;98852.91;5011854;28;39059;-85
2021/08/15 03:06:13;;;;;;;1.60;1.07;;;;;;;17.66;64.38;98906.13;5010442;28;40632;-84
2021/08/15 03:08:41;;;;;;;1.47;0.83;;;;;;;17.63;64.63;98906.34;5011419;28;41769;-85
2021/08/15 03:11:09;;;;;;;1.07;0.93;;;;;;;17.59;64.97;98903.09;5010733;28;41416;-85
2021/08/15 03:13:38;;;;;;;2.13;1.20;;;;;;;17.64;65.25;98916.13;5028506;28;39874;-85
2021/08/15 03:16:06;;;;;;;0.67;0.67;;;;;;;17.48;65.73;98893.34;5029789;28;41910;-85
2021/08/15 03:18:33;;;;;;;0.70;0.70;;;;;;;17.23;65.73;98861.75;5010810;28;43126;-84
2021/08/15 03:21:01;;;;;;;1.33;1.20;;;;;;;17.43;65.50;98897.44;5011853;28;42087;-85
2021/08/15 03:23:28;;;;;;;0.83;0.83;;;;;;;17.43;65.27;98898.28;5011111;28;39102;-85
2021/08/15 03:25:56;;;;;;;1.20;1.10;;;;;;;17.38;65.43;98900.53;5011563;28;40596;-84
2021/08/15 03:28:23;;;;;;;1.37;0.97;;;;;;;17.45;65.59;98908.84;5026298;28;41735;-84
2021/08/15 03:30:52;;;;;;;1.00;0.90;;;;;;;17.40;65.26;98911.97;5030704;28;42245;-85
2021/08/15 03:33:20;;;;;;;1.43;1.00;;;;;;;17.41;65.17;98912.81;5032733;28;41088;-85
2021/08/15 03:35:48;;;;;;;1.40;1.30;;;;;;;17.38;65.67;98911.25;5011692;28;41188;-84
2021/08/15 03:38:15;;;;;;;1.13;1.07;;;;;;;17.37;65.63;98911.38;5011370;28;41691;-84
2021/08/15 03:40:43;;;;;;;1.07;0.90;;;;;;;17.26;65.95;98893.59;4995693;28;41384;-85
2021/08/15 03:43:10;;;;;;;1.10;1.00;;;;;;;17.29;65.98;98897.84;5011830;28;39981;-83
2021/08/15 03:45:39;;;;;;;1.50;1.37;;;;;;;17.34;66.43;98908.97;5010888;28;41972;-84
2021/08/15 03:48:08;;;;;;;1.00;0.90;;;;;;;17.33;66.36;98921.50;5027711;28;43943;-83
2021/08/15 03:50:36;;;;;;;1.37;1.20;;;;;;;17.23;66.42;98904.56;5011155;28;41250;-84
2021/08/15 03:53:04;;;;;;;0.63;0.63;;;;;;;17.32;66.45;98922.47;5010590;28;40337;-83
2021/08/15 03:55:32;;;;;;;1.50;1.40;;;;;;;17.31;68.37;98910.06;5011157;28;40898;-83
2021/08/15 03:57:59;;;;;;;1.13;1.00;;;;;;;17.20;69.63;98896.81;5028063;28;42979;-84
2021/08/15 04:00:27;;;;;;;0.87;0.87;;;;;;;17.31;69.59;98918.09;5027865;28;41560;-83
2021/08/15 04:02:55;;;;;;;1.03;0.90;;;;;;;17.33;70.04;98918.81;5011543;28;38895;-85
2021/08/15 04:05:24;;;;;;;2.07;1.43;;;;;;;17.29;70.03;98916.56;5012094;28;40570;-83
2021/08/15 04:07:51;;;;;;;1.17;0.80;;;;;;;17.26;69.43;98911.50;5014971;28;42702;-84
2021/08/15 04:10:19;;;;;;;1.30;1.20;;;;;;;17.26;68.90;98917.69;5013344;28;41425;-84
2021/08/15 04:12:47;;;;;;;0.80;0.80;;;;;;;17.28;68.63;98910.38;5014749;28;40058;-84
2021/08/15 04:15:14;;;;;;;1.40;1.20;;;;;;;17.27;68.20;98910.50;5013868;28;40753;-85
2021/08/15 04:17:42;;;;;;;1.87;1.37;;;;;;;17.29;68.23;98922.78;5013676;28;42658;-86
2021/08/15 04:20:10;;;;;;;2.07;1.40;;;;;;;17.28;67.99;98920.22;5013184;28;41643;-85
2021/08/15 04:22:39;;;;;;;1.00;0.90;;;;;;;17.18;67.90;98909.50;5030729;28;41674;-85
2021/08/15 04:25:07;;;;;;;1.63;1.17;;;;;;;17.38;67.87;98937.16;5014084;28;40770;-84
2021/08/15 04:27:35;;;;;;;1.47;1.03;;;;;;;17.39;67.97;98929.00;5014523;28;42148;-85
2021/08/15 04:30:03;;;;;;;1.10;1.10;;;;;;;17.42;68.21;98927.88;5030980;28;42548;-85
2021/08/15 04:32:31;;;;;;;1.10;0.80;;;;;;;17.45;68.52;98916.88;5014122;28;39747;-86
2021/08/15 04:34:58;;;;;;;1.20;1.10;;;;;;;17.40;69.21;98911.97;5014274;28;41171;-85
2021/08/15 04:37:26;;;;;;;1.17;1.07;;;;;;;17.42;68.83;98904.63;5014577;28;43824;-85
2021/08/15 04:39:55;;;;;;;1.20;1.07;;;;;;;17.45;69.11;98907.00;5014721;28;41206;-84
2021/08/15 04:42:23;;;;;;;1.90;1.47;;;;;;;17.57;68.80;98916.63;5014244;28;39967;-85
2021/08/15 04:44:51;;;;;;;0.73;0.73;;;;;;;17.62;68.50;98923.41;5014490;28;40976;-84
2021/08/15 04:47:19;;;;;;;1.50;1.40;;;;;;;17.58;68.03;98907.59;5029972;28;42862;-84
2021/08/15 04:49:46;;;;;;;1.37;1.27;;;;;;;17.66;68.59;98900.75;5014562;28;41560;-83
2021/08/15 04:52:13;;;;;;;1.47;1.10;;;;;;;17.81;68.08;98918.94;5013451;28;39154;-84
2021/08/15 04:54:41;;;;;;;1.13;1.10;;;;;;;17.73;67.54;98893.84;5014041;28;42022;-84
2021/08/15 04:57:10;;;;;;;1.43;1.10;;;;;;;17.90;67.59;98901.19;5012526;28;41793;-83
2021/08/15 04:59:38;;;;;;;0.90;0.90;;;;;;;18.00;67.44;98906.53;5014101;28;41451;-84
2021/08/15 05:02:05;;;;;;;1.57;1.47;;;;;;;18.16;67.19;98921.06;5014100;28;39362;-84
2021/08/15 05:04:33;;;;;;;1.20;1.10;;;;;;;18.13;67.04;98891.88;5013850;28;41470;-83
2021/08/15 05:07:01;;;;;;;0.93;0.83;;;;;;;18.38;67.29;98913.72;5013716;28;41755;-84
2021/08/15 05:09:29;;;;;;;2.60;1.77;;;;;;;18.56;67.09;98920.00;4996706;28;41566;-84
2021/08/15 05:11:56;;;;;;;1.60;0.97;;;;;;;18.61;66.72;98902.53;5030118;28;39744;-84
2021/08/15 05:14:25;;;;;;;1.60;1.50;;;;;;;18.68;66.87;98902.78;5029931;28;41209;-85
2021/08/15 05:16:53;;;;;;;2.40;1.60;;;;;;;18.82;66.63;98920.25;5029214;28;41931;-84
2021/08/15 05:19:21;;;;;;;8.17;2.67;;;;;;;18.74;66.96;98904.91;5013243;28;41499;-84
2021/08/15 05:21:48;;;;;;;1.20;1.10;;;;;;;18.77;67.26;98909.97;4996071;28;39009;-84
2021/08/15 05:24:16;;;;;;;0.97;0.97;;;;;;;18.80;67.04;98912.34;5029748;28;41976;-83
2021/08/15 05:26:43;;;;;;;1.43;1.30;;;;;;;18.82;66.95;98907.69;5029342;28;43004;-84
2021/08/15 05:29:11;;;;;;;3.47;1.70;;;;;;;18.83;66.95;98912.06;5017616;28;42618;-84
2021/08/15 05:31:40;;;;;;;1.20;1.10;;;;;;;18.95;66.67;98921.63;5025956;28;40097;-84
2021/08/15 05:34:08;;;;;;;1.50;1.30;;;;;;;18.98;66.77;98921.34;5027241;28;41173;-83
2021/08/15 05:36:35;;;;;;;1.43;1.17;;;;;;;19.08;66.81;98923.13;5043523;28;43442;-84
2021/08/15 05:39:04;;;;;;;1.50;1.30;;;;;;;19.27;66.47;98931.97;5027042;28;43841;-84
2021/08/15 05:41:32;;;;;;;1.37;1.27;;;;;;;19.29;66.02;98923.72;5044276;28;40118;-84
2021/08/15 05:43:59;;;;;;;3.73;1.70;;;;;;;19.32;66.25;98928.81;5027123;28;40468;-85
2021/08/15 05:46:27;;;;;;;1.63;1.53;;;;;;;19.37;65.81;98927.38;5022931;28;41709;-84
2021/08/15 05:48:56;;;;;;;2.03;1.40;;;;;;;19.58;66.57;98935.19;5022700;28;41536;-83
2021/08/15 05:51:25;;;;;;;1.60;1.50;;;;;;;19.66;66.46;98926.38;5024860;28;20252;-84
2021/08/15 05:53:52;;;;;;;1.53;1.27;;;;;;;19.86;66.62;98935.16;5008231;28;40366;-84
2021/08/15 05:56:20;;;;;;;1.77;1.50;;;;;;;19.87;66.43;98918.03;5041467;28;43062;-83
2021/08/15 05:58:48;;;;;;;1.83;1.13;;;;;;;20.02;66.28;98921.88;5040746;28;42293;-84
2021/08/15 06:01:15;;;;;;;1.50;1.37;;;;;;;20.07;66.20;98903.44;5037265;28;40697;-83
2021/08/15 06:03:44;;;;;;;1.50;1.20;;;;;;;20.38;65.46;98928.97;5013731;28;40771;-85
2021/08/15 06:06:13;;;;;;;1.33;1.23;;;;;;;20.44;65.42;98917.56;5028485;28;42363;-84
2021/08/15 06:08:41;;;;;;;1.87;1.63;;;;;;;20.48;65.29;98919.94;5012826;28;41656;-85
2021/08/15 06:11:08;;;;;;;3.00;1.80;;;;;;;20.66;64.67;98935.03;4998680;28;39227;-83
2021/08/15 06:13:36;;;;;;;2.10;1.43;;;;;;;20.74;64.46;98926.19;5012677;28;40791;-84
2021/08/15 06:16:04;;;;;;;1.97;1.70;;;;;;;20.93;64.33;98928.63;5012116;28;41786;-84
2021/08/15 06:18:31;;;;;;;2.30;1.70;;;;;;;21.06;63.69;98912.88;5012182;28;41485;-84
2021/08/15 06:20:59;;;;;;;1.67;1.47;;;;;;;21.55;62.49;98937.38;5011723;28;40311;-84
2021/08/15 06:23:28;;;;;;;1.70;1.60;;;;;;;21.78;62.39;98941.13;5012095;28;42038;-84
2021/08/15 06:25:55;;;;;;;1.57;1.47;;;;;;;21.92;61.88;98941.50;5029183;28;41652;-84
2021/08/15 06:28:23;;;;;;;1.93;1.30;;;;;;;21.96;61.54;98922.16;5011501;28;42417;-84
2021/08/15 06:30:50;;;;;;;2.40;2.20;;;;;;;22.32;61.08;98933.50;5012488;28;38878;-84
2021/08/15 06:33:18;;;;;;;3.17;1.60;;;;;;;22.87;59.24;98949.00;5011152;28;41177;-83
2021/08/15 06:35:46;;;;;;;1.80;1.50;;;;;;;23.19;58.67;98921.91;5012687;28;43294;-86
2021/08/15 06:38:14;;;;;;;1.60;1.50;;;;;;;23.61;57.82;98934.25;5012068;28;41431;-86
2021/08/15 06:40:43;;;;;;;1.30;1.13;;;;;;;24.28;56.41;98945.34;5002469;28;38885;-86
2021/08/15 06:43:12;;;;;;;1.37;1.27;;;;;;;24.93;54.49;98956.47;5008899;28;40671;-84
2021/08/15 06:45:41;;;;;;;1.57;1.47;;;;;;;25.31;53.78;98954.53;5010241;28;42230;-86
2021/08/15 06:48:09;;;;;;;2.20;1.47;;;;;;;25.48;52.83;98967.88;5010647;28;41463;-85
2021/08/15 06:50:37;;;;;;;1.43;1.10;;;;;;;25.37;52.63;98955.66;5027817;28;41564;-86
2021/08/15 06:53:09;;;;;;;1.87;1.10;;;;;;;25.20;53.78;98951.47;5026238;28;42030;-84
2021/08/15 06:55:36;;;;;;;1.30;1.13;;;;;;;25.02;54.01;98943.69;5028325;28;41698;-84
2021/08/15 06:58:06;;;;;;;1.60;1.50;;;;;;;25.10;54.40;98951.72;5011408;28;41615;-86
2021/08/15 07:00:33;;;;;;;1.47;1.37;;;;;;;25.21;54.17;98936.88;5025336;28;39323;-85
2021/08/15 07:03:01;;;;;;;1.60;1.33;;;;;;;25.25;52.66;98928.16;4994906;28;40756;-86
2021/08/15 07:05:28;;;;;;;2.00;1.30;;;;;;;25.43;52.85;98957.63;5026810;28;42899;-85
2021/08/15 07:07:56;;;;;;;1.03;0.93;;;;;;;25.41;51.36;98937.97;5027597;28;42403;-85
2021/08/15 07:10:23;;;;;;;1.53;1.37;;;;;;;25.54;50.93;98954.44;5010600;28;39111;-86
2021/08/15 07:12:54;;;;;;;1.10;0.93;;;;;;;25.49;51.54;98939.75;5009280;28;41127;-86
2021/08/15 07:15:28;;;;;;;1.80;1.47;;;;;;;25.47;51.70;98933.69;5028287;28;42819;-84
2021/08/15 07:17:56;;;;;;;1.13;1.03;;;;;;;25.55;52.00;98947.13;5010868;28;41670;-85
2021/08/15 07:20:25;;;;;;;1.43;1.13;;;;;;;25.54;51.15;98950.88;5010374;28;40386;-84
2021/08/15 07:22:53;;;;;;;1.57;1.13;;;;;;;25.57;50.91;98931.50;5010949;28;41953;-84
2021/08/15 07:25:21;;;;;;;1.67;1.53;;;;;;;25.82;50.72;98940.19;5035907;28;43013;-84
2021/08/15 07:27:49;;;;;;;1.20;1.00;;;;;;;26.02;50.48;98950.22;5013176;28;41369;-84
2021/08/15 07:30:16;;;;;;;1.57;1.17;;;;;;;26.22;51.03;98930.59;5011419;28;40135;-84
2021/08/15 07:32:54;;;;;;;1.37;1.20;;;;;;;26.48;49.68;98934.41;5010004;28;40967;-86
2021/08/15 07:35:22;;;;;;;5.17;2.37;;;;;;;26.94;47.50;98960.34;5010071;28;42851;-84
2021/08/15 07:37:50;;;;;;;1.20;1.00;;;;;;;27.30;48.30;98939.25;5013967;28;42543;-85
2021/08/15 07:40:19;;;;;;;1.40;1.10;;;;;;;27.53;47.12;98953.38;5028774;28;42066;-85
2021/08/15 07:42:50;;;;;;;1.30;1.20;;;;;;;27.51;47.73;98944.56;5014277;28;41088;-86
2021/08/15 07:45:19;;;;;;;1.23;1.10;;;;;;;27.42;47.25;98950.38;5013505;28;41642;-85
2021/08/15 07:47:46;;;;;;;1.10;1.00;;;;;;;27.50;46.96;98942.91;5029662;28;43341;-84
2021/08/15 07:50:16;;;;;;;1.30;1.20;;;;;;;27.75;46.32;98934.22;5013757;28;38996;-89
2021/08/15 07:55:52;;;;;;;1.20;1.10;;;;;;;28.91;43.29;98968.44;5018355;28;41477;-87
2021/08/15 07:58:21;;;;;;;2.13;1.50;;;;;;;29.19;43.95;98974.47;5006062;28;41542;-85
2021/08/15 08:00:50;;;;;;;1.50;1.40;;;;;;;29.28;42.90;98970.47;5006614;28;39242;-87
2021/08/15 08:03:19;;;;;;;1.13;1.03;;;;;;;29.15;42.72;98956.03;5013811;28;41703;-87
2021/08/15 08:05:49;;;;;;;1.20;1.00;;;;;;;29.34;42.62;98957.03;5018283;28;42134;-85
2021/08/15 08:08:17;;;;;;;0.90;0.90;;;;;;;29.54;41.43;98945.03;5018312;28;42559;-86
2021/08/15 08:10:47;;;;;;;1.03;1.00;;;;;;;30.38;39.69;98965.03;5015227;28;39180;-86
2021/08/15 08:13:15;;;;;;;1.20;1.10;;;;;;;30.79;38.92;98962.63;5014792;28;41176;-88
2021/08/15 08:15:43;;;;;;;1.63;1.07;;;;;;;31.03;38.80;98959.03;5013557;28;42776;-86
2021/08/15 08:18:11;;;;;;;1.07;0.97;;;;;;;31.23;39.96;98947.09;5008134;28;41788;-87
2021/08/15 08:20:39;;;;;;;1.20;1.10;;;;;;;31.49;39.72;98946.81;5011531;28;39092;-87
2021/08/15 08:23:11;;;;;;;1.40;1.30;;;;;;;31.77;38.52;98949.84;5014459;28;41108;-85
2021/08/15 08:25:43;;;;;;;1.37;1.27;;;;;;;32.25;37.57;98940.81;4995835;28;43470;-86
2021/08/15 08:28:11;;;;;;;1.30;1.20;;;;;;;32.92;36.77;98962.53;5010579;28;41803;-86
2021/08/15 08:30:39;;;;;;;1.47;1.37;;;;;;;33.05;35.05;98967.81;5004563;28;40135;-85
2021/08/15 08:33:17;;;;;;;1.27;1.17;;;;;;;32.99;35.39;98966.84;5011803;28;41429;-85
2021/08/15 08:35:48;;;;;;;2.23;1.60;;;;;;;32.85;34.00;98953.59;5014671;28;42467;-85
2021/08/15 08:38:17;;;;;;;2.13;1.40;;;;;;;33.35;35.59;98962.22;5013175;28;42619;-86
2021/08/15 08:40:45;;;;;;;1.50;1.40;;;;;;;34.07;34.41;98970.91;5029366;28;40455;-85
2021/08/15 08:43:13;;;;;;;1.40;1.30;;;;;;;34.96;31.51;98991.31;5012714;28;41070;-85
2021/08/15 08:45:41;;;;;;;1.00;1.00;;;;;;;35.75;30.98;98986.44;5013914;28;42999;-86
2021/08/15 08:48:10;;;;;;;2.07;1.50;;;;;;;37.05;30.19;98987.31;5011076;28;42562;-86
2021/08/15 08:50:38;;;;;;;1.63;1.53;;;;;;;38.41;27.89;99005.78;5011769;28;39818;-85
2021/08/15 08:53:06;;;;;;;1.30;1.20;;;;;;;39.02;26.18;99000.34;5032346;28;40907;-85
2021/08/15 08:55:37;;;;;;;1.73;1.20;;;;;;;39.35;24.79;99001.69;5029140;28;42143;-87
2021/08/15 08:58:11;;;;;;;1.25;1.15;;;;;;;38.49;25.49;98974.78;5013206;28;42541;-86
2021/08/15 09:00:39;;;;;;;1.40;1.10;;;;;;;37.75;25.73;98991.66;5013479;28;39894;-85
2021/08/15 09:03:07;;;;;;;1.37;1.27;;;;;;;36.92;27.05;98965.66;5012507;28;40834;-85
2021/08/15 09:05:36;;;;;;;1.37;1.27;;;;;;;36.45;27.57;98941.50;5013765;28;43864;-87
2021/08/15 09:08:25;;;;;;;1.67;1.27;;;;;;;36.40;28.38;98937.84;5017881;28;41265;-85
2021/08/15 09:10:54;;;;;;;1.50;1.40;;;;;;;36.36;28.42;98940.28;5016664;28;39676;-85
2021/08/15 09:13:26;;;;;;;1.50;1.40;;;;;;;36.36;29.43;98937.53;5016706;28;41652;-86
2021/08/15 09:15:55;;;;;;;1.67;1.53;;;;;;;36.82;29.18;98927.78;5027737;28;41696;-86
2021/08/15 09:18:31;;;;;;;1.25;1.10;;;;;;;38.28;26.25;98950.94;5004888;28;41660;-86
2021/08/15 09:20:58;;;;;;;2.13;1.58;;;;;;;40.09;24.25;98965.72;5010348;28;39965;-85
2021/08/15 09:23:28;;;;;;;2.15;1.67;;;;;;;41.43;22.90;98978.34;5013260;28;40948;-86
2021/08/15 09:26:18;;;;;;;1.60;1.50;;;;;;;41.72;22.24;98981.94;5012624;28;42062;-87
2021/08/15 09:28:47;;;;;;;1.30;1.20;;;;;;;41.74;21.89;98962.16;5029375;28;41331;-88
2021/08/15 09:31:23;;;;;;;1.10;1.00;;;;;;;41.77;22.29;98969.94;5029992;28;38750;-86
2021/08/15 09:33:52;;;;;;;2.88;1.20;;;;;;;41.53;22.39;98950.44;5013375;28;42075;-86
2021/08/15 09:36:41;;;;;;;1.42;1.33;;;;;;;41.29;21.89;98942.09;5012735;28;42208;-87
2021/08/15 09:39:11;;;;;;;0.90;0.80;;;;;;;40.43;23.57;98921.38;5012646;28;42753;-86
2021/08/15 09:41:41;;;;;;;1.70;1.40;;;;;;;39.73;25.11;98933.69;5012694;28;39970;-88
2021/08/15 09:44:21;;;;;;;1.05;0.95;;;;;;;39.06;26.09;98918.38;5012050;28;41052;-87
2021/08/15 09:47:13;;;;;;;1.50;1.40;;;;;;;38.52;26.06;98916.13;5012912;28;42554;-86
2021/08/15 09:49:42;;;;;;;1.73;1.40;;;;;;;38.06;26.51;98932.63;4996955;28;41984;-86
2021/08/15 09:52:12;;;;;;;1.43;1.33;;;;;;;37.65;26.65;98922.53;5015035;28;39112;-85
2021/08/15 09:54:41;;;;;;;1.57;1.40;;;;;;;37.25;27.54;98901.84;5016630;28;41086;-87
2021/08/15 09:57:29;;;;;;;1.90;1.57;;;;;;;37.29;27.90;98916.78;5015616;28;42282;-86
2021/08/15 09:59:58;;;;;;;1.53;1.37;;;;;;;37.27;27.05;98919.00;5025755;28;41464;-86
2021/08/15 10:02:26;;;;;;;1.87;1.30;;;;;;;37.15;27.38;98904.53;5011555;28;39319;-83
2021/08/15 10:04:56;;;;;;;1.43;1.23;;;;;;;36.98;27.95;98882.59;5011905;28;40819;-85
2021/08/15 10:07:25;;;;;;;1.43;1.20;;;;;;;37.01;27.59;98917.13;5014801;28;42704;-85
2021/08/15 10:09:53;;;;;;;1.67;1.57;;;;;;;36.64;28.83;98879.28;5015073;28;41734;-86
2021/08/15 10:12:22;;;;;;;1.60;1.50;;;;;;;36.57;29.48;98878.69;5016169;28;39910;-86
2021/08/15 10:14:50;;;;;;;1.43;1.33;;;;;;;36.72;28.07;98877.19;5015794;28;41033;-86
2021/08/15 10:17:19;;;;;;;1.70;1.27;;;;;;;36.77;28.45;98871.69;5031561;28;42077;-84
2021/08/15 10:19:54;;;;;;;1.77;1.40;;;;;;;36.84;28.59;98877.81;5011453;28;41409;-87
2021/08/15 10:22:23;;;;;;;1.13;1.13;;;;;;;36.81;28.23;98886.63;5029279;28;40484;-86
2021/08/15 10:24:53;;;;;;;1.80;1.70;;;;;;;36.64;27.67;98882.06;5010059;28;41476;-85
2021/08/15 10:28:00;;;;;;;1.60;1.50;;;;;;;36.51;27.44;98882.50;5011974;28;41581;-85
2021/08/15 10:31:01;;;;;;;2.33;1.63;;;;;;;36.58;26.98;98885.88;5011791;28;41176;-85
2021/08/15 10:33:31;;;;;;;1.47;1.37;;;;;;;36.39;27.54;98850.66;4955778;28;39373;-85
2021/08/15 10:36:24;;;;;;;1.63;1.53;;;;;;;36.76;27.85;98872.78;4955447;28;43346;-87
2021/08/15 10:38:55;;;;;;;1.33;1.23;;;;;;;36.79;27.24;98883.31;4975407;28;43017;-86
2021/08/15 10:41:48;;;;;;;1.57;1.33;;;;;;;37.30;26.78;98868.72;5009796;28;41325;-85
2021/08/15 10:44:20;;;;;;;1.20;1.10;;;;;;;37.25;27.79;98860.41;5013906;28;39246;-85
2021/08/15 10:47:16;;;;;;;1.83;1.63;;;;;;;37.31;28.62;98864.88;5010479;28;41813;-85
2021/08/15 10:49:56;;;;;;;1.33;1.10;;;;;;;37.43;27.88;98855.53;4996578;28;44565;-88
2021/08/15 10:52:29;;;;;;;0.97;0.87;;;;;;;37.85;28.83;98841.56;5017828;28;41744;-86
2021/08/15 10:55:00;;;;;;;1.70;1.20;;;;;;;38.50;26.12;98864.91;5034144;28;41393;-85
2021/08/15 10:57:38;;;;;;;1.67;1.10;;;;;;;39.14;24.96;98859.59;5015509;28;41507;-85
2021/08/15 11:00:43;;;;;;;1.25;1.15;;;;;;;40.15;24.00;98873.00;5014577;28;42351;-86
2021/08/15 11:03:32;;;;;;;1.10;1.10;;;;;;;40.59;22.73;98886.00;5009526;28;42740;-86
2021/08/15 11:06:02;;;;;;;1.50;1.15;;;;;;;40.80;23.27;98876.41;4997328;28;41440;-86
2021/08/15 11:08:53;;;;;;;1.63;1.50;;;;;;;40.79;22.19;98885.03;5011674;28;41012;-86
2021/08/15 11:11:25;;;;;;;1.20;1.10;;;;;;;41.12;23.79;98858.28;5009915;28;42484;-86
2021/08/15 11:14:25;;;;;;;1.58;1.23;;;;;;;41.75;21.73;98877.59;5011091;28;42062;-86
2021/08/15 11:16:55;;;;;;;1.50;1.40;;;;;;;42.26;21.44;98875.75;5009343;28;38927;-85
2021/08/15 11:19:29;;;;;;;1.20;1.10;;;;;;;42.68;21.45;98860.00;5011548;28;41107;-84
2021/08/15 11:22:24;;;;;;;1.70;1.60;;;;;;;43.34;21.66;98848.47;5006976;28;42332;-85
2021/08/15 11:24:55;;;;;;;1.38;1.27;;;;;;;43.87;21.36;98836.75;5041378;28;42376;-85
2021/08/15 11:27:30;;;;;;;1.33;1.23;;;;;;;44.06;20.16;98842.19;5030481;28;40227;-84
2021/08/15 11:30:09;;;;;;;1.70;1.60;;;;;;;43.70;20.53;98842.97;5025459;28;41165;-85
2021/08/15 11:32:37;;;;;;;1.35;1.25;;;;;;;42.85;21.39;98848.31;5010696;28;41809;-85
2021/08/15 11:35:10;;;;;;;1.33;1.25;;;;;;;42.14;21.70;98836.41;5013202;28;41917;-84
2021/08/15 11:37:40;;;;;;;2.67;1.63;;;;;;;41.92;22.45;98841.72;5008691;28;39277;-84
2021/08/15 11:40:18;;;;;;;1.80;1.38;;;;;;;41.60;22.25;98832.16;5007959;28;42704;-84
2021/08/15 11:42:57;;;;;;;1.90;1.80;;;;;;;41.50;22.96;98826.72;5009425;28;42300;-84
2021/08/15 11:45:34;;;;;;;1.98;1.60;;;;;;;41.53;21.85;98828.91;5008017;28;41582;-85
2021/08/15 11:48:10;;;;;;;1.60;1.50;;;;;;;41.68;21.69;98821.47;5008718;28;40025;-85
2021/08/15 11:50:42;;;;;;;1.38;1.27;;;;;;;42.15;22.43;98812.19;5010841;28;41040;-85